x

Canaveral 20 Nm East Of Cape Canaveral, Fl (41009) Wave Buoy

5:50pm - Thu 26th Mar 2015 All times are EDT. -4 hours from GMT.

  • Sig Wave height 4.3ft
  • Swell Direction
  • Peak Period 8s
  • Average Period 6s
  • Wind
    22mph, 31mph gusts
  • Sea Temp 73°f
  • Air Temp 75°f
  • Sea Pressure 1012.4mb
  • Canaveral 20 Nm East Of Cape Canaveral, Fl
  • Canaveral 20 Nm East Of Cape Canaveral, Fl

More Historic Weather Station data

Upgrade to MSW Pro to gain access to the past 30 days of data for over 8000 Wavebouys and Weather Stations around the globe.

Join Pro

Comparision Forecast

View Surf forecast
   
Thu 03/26 5:50pm 4.5ft 8s 6s 22 31 mph 1012.4mb 73f 75f
5:20pm  -   -   -  18 20 mph 1012.1mb 74f 76f
4:50pm 5ft 8s 6s 16 18 mph 1012.4mb 74f 75f
4:20pm  -   -   -  16 18 mph 1012.6mb 74f 76f
3:50pm 5ft 8s 6s 13 16 mph 1013.6mb 74f 75f
3:20pm  -   -   -  13 16 mph 1014.2mb 74f 75f
2:50pm 5ft 8s 7s 13 18 mph 1014.5mb 74f 75f
2:20pm  -   -   -  13 18 mph 1014.7mb 74f 75f
1:50pm 4.5ft 8s 6s 16 20 mph 1015.3mb 74f 75f
1:20pm  -   -   -  16 18 mph 1015.9mb 74f 75f
12:50pm 5ft 8s 7s 13 18 mph 1016.4mb 75f 75f
12:20pm  -   -   -  13 16 mph 1016.9mb 75f 75f
11:50am 4.5ft 8s 7s 11 13 mph 1017.4mb 74f 75f
11:20am  -   -   -  13 16 mph 1017.7mb 74f 75f
10:50am 4.5ft 8s 7s 11 13 mph 1017.9mb 74f 75f
10:20am  -   -   -  9 11 mph 1018.1mb 74f 75f
9:50am 4.5ft 8s 7s 9 13 mph 1018.1mb 74f 75f
9:20am  -   -   -  9 11 mph 1018.2mb 74f 75f
8:50am 4ft 8s 7s 7 9 mph 1018.1mb 74f 74f
8:20am  -   -   -  7 9 mph 1018mb 74f 74f
7:50am 4ft 9s 6s 9
mph
1017.6mb 74f 74f
7:20am  -   -   -  7 9 mph 1017.4mb 74f 74f
6:50am 4ft 9s 6s 4 7 mph 1017.2mb 74f 74f
6:20am  -   -   -  7
mph
1016.9mb 74f 74f
5:50am 4ft 8s 6s 7 9 mph 1016.7mb 74f 74f
5:20am  -   -   -  7 9 mph 1016.5mb 74f 74f
4:20am  -   -   -  7 9 mph 1016.7mb 74f 74f
3:50am 4.5ft 9s 6s 7 9 mph 1016.9mb 75f 75f
3:20am  -   -   -  9 11 mph 1017.3mb 75f 75f
2:50am 4ft 8s 6s 9 11 mph 1017.7mb 75f 75f
2:20am  -   -   -  9 11 mph 1018mb 75f 75f
1:50am 4ft 8s 6s 9 11 mph 1018.3mb 75f 75f
1:20am  -   -   -  9 11 mph 1018.4mb 75f 75f
12:50am 4ft 8s 6s 11 13 mph 1018.5mb 75f 75f
12:20am  -   -   -  11 13 mph 1018.7mb 75f 75f
Wed 03/25 11:50pm 4ft 9s 6s 9 11 mph 1018.9mb 75f 75f
11:20pm  -   -   -  11
mph
1019.1mb 75f 75f
10:50pm 4ft 8s 6s 9 11 mph 1019.3mb 75f 75f
10:20pm  -   -   -  9 11 mph 1019.4mb 76f 75f
9:50pm 4ft 8s 6s 11 13 mph 1019.3mb 76f 75f
9:20pm  -   -   -  11 13 mph 1019.1mb 76f 75f
8:50pm 4ft 9s 6s 11 13 mph 1019mb 76f 75f
8:20pm  -   -   -  11 13 mph 1019mb 76f 75f
7:50pm 4ft 9s 6s 11 13 mph 1019mb 76f 75f
7:20pm  -   -   -  11 13 mph 1018.9mb 76f 75f
6:50pm 4ft 10s 6s 11 13 mph 1018.8mb 76f 74f
6:20pm  -   -   -  11 13 mph 1018.8mb 76f 74f
5:50pm 4ft 9s 6s 11 13 mph 1018.7mb 76f 74f
5:20pm  -   -   -  11 13 mph 1018.8mb 76f 73f
4:50pm 4ft 9s 6s 11
mph
1019mb 76f 73f
4:20pm  -   -   -  9 13 mph 1019.2mb 76f 73f
3:50pm 4.5ft 9s 7s 11 13 mph 1019.3mb 76f 72f
3:20pm  -   -   -  11 13 mph 1019.5mb 76f 71f
2:50pm 4.5ft 9s 6s 13 16 mph 1019.7mb 76f 71f
2:20pm  -   -   -  13 16 mph 1019.8mb 76f 70f
1:50pm 4ft 9s 6s 13 16 mph 1020mb 76f 69f
1:20pm  -   -   -  13 16 mph 1020.3mb 76f 69f
12:50pm 4.5ft 8s 6s 11 16 mph 1020.5mb 76f 69f
12:20pm  -   -   -  13 18 mph 1020.6mb 76f 68f
11:50am 4.5ft 8s 6s 11 13 mph 1020.7mb 76f 68f
11:20am  -   -   -  11 13 mph 1020.8mb 75f 67f
10:50am 4.5ft 8s 6s 11 16 mph 1020.8mb 75f 67f
10:20am  -   -   -  13 16 mph 1020.6mb 75f 67f
9:50am 4.5ft 10s 7s 13 16 mph 1020.3mb 75f 67f
9:20am  -   -   -  13 16 mph 1020.3mb 75f 67f
8:50am 5ft 10s 7s 9 13 mph 1020.1mb 75f 68f
8:20am  -   -   -  9 11 mph 1019.6mb 75f 67f
7:50am 5ft 9s 7s 9 11 mph 1019.3mb 75f 66f
7:20am  -   -   -  9 13 mph 1019.1mb 75f 65f
6:50am 5ft 9s 7s 11 16 mph 1019mb 75f 66f
6:20am  -   -   -  11 13 mph 1018.6mb 75f 67f
5:50am 5ft 10s 7s 11 13 mph 1018.4mb 75f 67f
5:20am  -   -   -  11 13 mph 1018.1mb 75f 68f
4:50am 4.5ft 8s 6s 11 13 mph 1017.9mb 75f 67f
4:20am  -   -   -  11
mph
1017.9mb 75f 67f
3:50am 5ft 9s 7s 7 9 mph 1018mb 75f 67f
3:20am  -   -   -  9 11 mph 1018.3mb 75f 67f
2:50am 4.5ft 10s 7s 4 9 mph 1018.5mb 75f 69f
2:20am  -   -   -  4 7 mph 1018.8mb 75f 69f
1:50am 4.5ft 9s 6s 4 7 mph 1018.9mb 75f 69f
1:20am  -   -   -  9 11 mph 1018.8mb 75f 69f
12:50am 4.5ft 10s 6s 9 11 mph 1019mb 75f 69f
12:20am  -   -   -  9 11 mph 1018.9mb 74f 68f
Tue 03/24 11:50pm 4.5ft 10s 6s 9 11 mph 1019.1mb 74f 68f
11:20pm  -   -   -  9 13 mph 1019.1mb 74f 68f
10:50pm 4.5ft 9s 6s 11 13 mph 1019.1mb 74f 68f
10:20pm  -   -   -  11 16 mph 1019mb 74f 68f
9:50pm 5ft 11s 6s 11 13 mph 1018.9mb 74f 67f
9:20pm  -   -   -  11 13 mph 1018.8mb 74f 67f
8:50pm 5ft 9s 6s 13 16 mph 1018.5mb 74f 67f
8:20pm  -   -   -  11 16 mph 1018.4mb 74f 67f
7:50pm 4.5ft 10s 6s 11 16 mph 1018.3mb 74f 66f
7:20pm  -   -   -  13 18 mph 1018.1mb 73f 67f
6:50pm 5ft 10s 6s 13 18 mph 1017.7mb 73f 66f
6:20pm  -   -   -  16 18 mph 1017.5mb 73f 66f
5:50pm 5ft 10s 5s 16 18 mph 1017.3mb 74f 66f
5:20pm  -   -   -  16 18 mph 1017.2mb 74f 66f
4:50pm 5ft 10s 5s 18 20 mph 1017.2mb 74f 65f
4:20pm  -   -   -  18 20 mph 1017.2mb 74f 65f
3:50pm 5ft 9s 5s 18 20 mph 1017.4mb 74f 65f
3:20pm  -   -   -  18 20 mph 1017.4mb 74f 65f
2:50pm 5ft 10s 5s 18 20 mph 1017.4mb 74f 66f
2:20pm  -   -   -  18 20 mph 1017.5mb 74f 66f
1:50pm 5ft 10s 5s 18 20 mph 1017.6mb 74f 67f
1:20pm  -   -   -  16 18 mph 1018mb 74f 67f
12:50pm 4.5ft 10s 5s 13 16 mph 1018.2mb 74f 67f
12:20pm  -   -   -  13 18 mph 1018.3mb 74f 66f
11:50am 4.5ft 10s 5s 16 18 mph 1018.3mb 74f 67f
11:20am  -   -   -  18 20 mph 1018mb 74f 67f
10:50am 4.5ft 8s 5s 18 22 mph 1017.8mb 74f 67f
10:20am  -   -   -  18 22 mph 1017.6mb 73f 68f
9:50am 4ft 10s 5s 16 18 mph 1017.4mb 73f 69f
9:20am  -   -   -  16 18 mph 1017.3mb 73f 68f
8:50am 4ft 8s 5s 11 16 mph 1017.1mb 73f 69f
8:20am  -   -   -  13 16 mph 1016.7mb 73f 68f
7:50am 4ft 10s 5s 13 16 mph 1016.4mb 73f 67f
7:20am  -   -   -  13 18 mph 1016.1mb 73f 67f
6:50am 4ft 10s 5s 13 16 mph 1015.9mb 74f 67f
6:20am  -   -   -  13 16 mph 1015.4mb 74f 67f
5:50am 4ft 9s 5s 16 18 mph 1015mb 74f 67f
5:20am  -   -   -  13 18 mph 1014.8mb 74f 67f
4:50am 3.5ft 8s 5s 18 20 mph 1014.7mb 74f 67f
4:20am  -   -   -  18 20 mph 1014.6mb 74f 68f
3:50am 3ft 8s 5s 16 20 mph 1014.5mb 74f 69f
3:20am  -   -   -  16 18 mph 1014.7mb 74f 69f
2:50am 3ft 9s 5s 16 20 mph 1014.8mb 74f 70f
2:20am  -   -   -  16 18 mph 1014.8mb 74f 69f
1:50am 2.5ft 9s 5s 16 18 mph 1014.7mb 74f 70f
1:20am  -   -   -  13 18 mph 1014.8mb 74f 71f
12:50am 2ft 9s 5s 13 16 mph 1014.7mb 74f 72f
12:20am  -   -   -  13 16 mph 1014.7mb 74f 72f
Mon 03/23 11:50pm 1.6ft 9s 5s 11 13 mph 1014.6mb 74f 72f
11:20pm  -   -   -  11 13 mph 1014.5mb 74f 71f
10:50pm 1.6ft 8s 5s 11 13 mph 1014.3mb 74f 71f
10:20pm  -   -   -  11 18 mph 1014.3mb 74f 72f
9:50pm 1.6ft 8s 4s 11
mph
1014.1mb 74f 73f
9:20pm  -   -   -  9 11 mph 1013.7mb 74f 73f
8:50pm 2ft 3s 4s 4 7 mph 1013.6mb 74f 73f
8:20pm  -   -   -  4 7 mph 1013.6mb 74f 73f
7:50pm 2ft 4s 4s 7 9 mph 1013.3mb 74f 73f
7:20pm  -   -   -  11 13 mph 1013.1mb 74f 72f
6:50pm 2ft 8s 4s 13 16 mph 1012.9mb 74f 72f
6:20pm  -   -   -  13
mph
1013mb 74f 72f
5:50pm 2ft 3s 4s 13 18 mph 1012.9mb 74f 72f
5:20pm  -   -   -  16 18 mph 1012.5mb 74f 71f
4:50pm 1.6ft 3s 3s 16 18 mph 1012.3mb 74f 71f
4:20pm  -   -   -  16 18 mph 1012.3mb 74f 72f
3:50pm 1.6ft 10s 4s 16
mph
1012.2mb 74f 71f
3:20pm  -   -   -  18 20 mph 1012mb 74f 71f
2:50pm 1.6ft 10s 4s 20 22 mph 1011.7mb 74f 70f
2:20pm  -   -   -  18 20 mph 1013.2mb 74f 70f
1:50pm 2ft 10s 4s 9 13 mph 1013.8mb 74f 69f
1:20pm  -   -   -  11 16 mph 1014.6mb 74f 69f
12:50pm 2.5ft 10s 4s 11 13 mph 1014.6mb 74f 70f
12:20pm  -   -   -  9 11 mph 1014.5mb 74f 70f
11:50am 2.5ft 9s 4s 9 11 mph 1014.4mb 74f 69f
11:20am  -   -   -  13 16 mph 1014.3mb 74f 69f
10:50am 2.5ft 10s 4s 13 16 mph 1014.1mb 74f 70f
10:20am  -   -   -  18 20 mph 1013.9mb 74f 71f
9:50am 2.5ft 9s 4s 16 20 mph 1013.6mb 74f 71f
9:20am  -   -   -  18 20 mph 1013.3mb 74f 71f
8:50am 2.5ft 8s 4s 16 18 mph 1013mb 74f 72f
8:20am  -   -   -  16 20 mph 1012.8mb 74f 71f
7:50am 2.5ft 8s 4s 18 20 mph 1012.8mb 74f 72f
7:20am  -   -   -  16 18 mph 1012.6mb 74f 71f
6:50am 2.5ft 8s 4s 16 18 mph 1012.5mb 74f 71f
6:20am  -   -   -  16 18 mph 1012.3mb 74f 71f
5:50am 2.5ft 8s 4s 13 16 mph 1012.2mb 74f 72f
5:20am  -   -   -  16 18 mph 1012.3mb 74f 72f
4:50am 2.5ft 9s 5s 13 16 mph 1012.2mb 74f 72f
4:20am  -   -   -  13 16 mph 1012.2mb 74f 72f
3:50am 2.5ft 10s 6s 18 22 mph 1012.7mb 74f 73f
3:20am  -   -   -  11 13 mph 1012.9mb 74f 73f
2:50am 2.5ft 11s 6s 13 16 mph 1013.2mb 74f 73f
2:20am  -   -   -  11 13 mph 1013.2mb 74f 73f
1:50am 2.5ft 11s 5s 11 13 mph 1013.4mb 74f 73f
1:20am  -   -   -  9 11 mph 1013.6mb 75f 73f
12:50am 2.5ft 9s 5s 11 13 mph 1013.5mb 75f 74f
12:20am  -   -   -  9 11 mph 1013.8mb 75f 75f
Sun 03/22 11:50pm 2.5ft 9s 5s 7 9 mph 1013.6mb 75f 75f
11:20pm  -   -   -  9 11 mph 1013.7mb 75f 76f
10:50pm 2ft 9s 7s 7 9 mph 1013.5mb 75f 75f